sensor_id;sensor_type;location;lat;lon;timestamp;P1;durP1;ratioP1;P2;durP2;ratioP2
70052;SDS011;57398;52.032;4.376;2023-06-10T00:00:48;14.98;;;9.95;;
70052;SDS011;57398;52.032;4.376;2023-06-10T00:03:40;14.48;;;10.32;;
70052;SDS011;57398;52.032;4.376;2023-06-10T00:06:32;14.05;;;9.65;;
70052;SDS011;57398;52.032;4.376;2023-06-10T00:09:27;14.18;;;9.25;;
70052;SDS011;57398;52.032;4.376;2023-06-10T00:12:18;13.30;;;8.93;;
70052;SDS011;57398;52.032;4.376;2023-06-10T00:15:12;13.80;;;9.10;;
70052;SDS011;57398;52.032;4.376;2023-06-10T00:18:00;13.43;;;8.88;;
70052;SDS011;57398;52.032;4.376;2023-06-10T00:20:56;12.27;;;8.65;;
70052;SDS011;57398;52.032;4.376;2023-06-10T00:23:53;12.25;;;8.45;;
70052;SDS011;57398;52.032;4.376;2023-06-10T00:27:01;11.70;;;7.90;;
70052;SDS011;57398;52.032;4.376;2023-06-10T00:29:54;12.90;;;8.50;;
70052;SDS011;57398;52.032;4.376;2023-06-10T00:32:43;13.75;;;8.20;;
70052;SDS011;57398;52.032;4.376;2023-06-10T00:35:32;12.00;;;8.23;;
70052;SDS011;57398;52.032;4.376;2023-06-10T00:38:22;11.20;;;7.38;;
70052;SDS011;57398;52.032;4.376;2023-06-10T00:41:10;13.13;;;7.63;;
70052;SDS011;57398;52.032;4.376;2023-06-10T00:43:59;12.13;;;7.95;;
70052;SDS011;57398;52.032;4.376;2023-06-10T00:46:47;12.38;;;7.78;;
70052;SDS011;57398;52.032;4.376;2023-06-10T00:49:38;13.27;;;7.80;;
70052;SDS011;57398;52.032;4.376;2023-06-10T00:52:27;12.15;;;7.70;;
70052;SDS011;57398;52.032;4.376;2023-06-10T00:55:18;10.67;;;7.23;;
70052;SDS011;57398;52.032;4.376;2023-06-10T00:58:07;12.13;;;7.60;;
70052;SDS011;57398;52.032;4.376;2023-06-10T01:00:56;13.07;;;7.82;;
70052;SDS011;57398;52.032;4.376;2023-06-10T01:03:44;12.48;;;6.95;;
70052;SDS011;57398;52.032;4.376;2023-06-10T01:06:34;12.95;;;7.68;;
70052;SDS011;57398;52.032;4.376;2023-06-10T01:09:37;11.30;;;6.80;;
70052;SDS011;57398;52.032;4.376;2023-06-10T01:12:29;13.00;;;7.32;;
70052;SDS011;57398;52.032;4.376;2023-06-10T01:15:22;13.75;;;7.00;;
70052;SDS011;57398;52.032;4.376;2023-06-10T01:18:10;11.98;;;7.03;;
70052;SDS011;57398;52.032;4.376;2023-06-10T01:21:02;13.43;;;6.80;;
70052;SDS011;57398;52.032;4.376;2023-06-10T01:23:52;11.43;;;6.60;;
70052;SDS011;57398;52.032;4.376;2023-06-10T01:26:44;10.32;;;6.40;;
70052;SDS011;57398;52.032;4.376;2023-06-10T01:29:41;10.77;;;6.60;;
70052;SDS011;57398;52.032;4.376;2023-06-10T01:32:40;13.10;;;5.53;;
70052;SDS011;57398;52.032;4.376;2023-06-10T01:35:57;10.90;;;6.30;;
70052;SDS011;57398;52.032;4.376;2023-06-10T01:38:47;10.27;;;6.07;;
70052;SDS011;57398;52.032;4.376;2023-06-10T01:41:39;9.68;;;5.97;;
70052;SDS011;57398;52.032;4.376;2023-06-10T01:44:28;11.00;;;5.97;;
70052;SDS011;57398;52.032;4.376;2023-06-10T01:47:16;11.50;;;6.28;;
70052;SDS011;57398;52.032;4.376;2023-06-10T01:50:05;10.63;;;6.15;;
70052;SDS011;57398;52.032;4.376;2023-06-10T01:52:53;10.53;;;5.73;;
70052;SDS011;57398;52.032;4.376;2023-06-10T01:55:42;11.43;;;6.00;;
70052;SDS011;57398;52.032;4.376;2023-06-10T01:58:31;10.65;;;6.10;;
70052;SDS011;57398;52.032;4.376;2023-06-10T02:01:19;10.35;;;6.18;;
70052;SDS011;57398;52.032;4.376;2023-06-10T02:04:08;9.77;;;5.70;;
70052;SDS011;57398;52.032;4.376;2023-06-10T02:06:57;12.00;;;6.10;;
70052;SDS011;57398;52.032;4.376;2023-06-10T02:09:45;12.55;;;5.95;;
70052;SDS011;57398;52.032;4.376;2023-06-10T02:12:33;9.88;;;5.70;;
70052;SDS011;57398;52.032;4.376;2023-06-10T02:15:23;13.52;;;5.78;;
70052;SDS011;57398;52.032;4.376;2023-06-10T02:18:12;9.02;;;5.47;;
70052;SDS011;57398;52.032;4.376;2023-06-10T02:21:00;9.83;;;5.63;;
70052;SDS011;57398;52.032;4.376;2023-06-10T02:23:49;11.65;;;5.97;;
70052;SDS011;57398;52.032;4.376;2023-06-10T02:26:37;9.23;;;5.35;;
70052;SDS011;57398;52.032;4.376;2023-06-10T02:29:25;12.23;;;5.70;;
70052;SDS011;57398;52.032;4.376;2023-06-10T02:32:15;10.70;;;5.20;;
70052;SDS011;57398;52.032;4.376;2023-06-10T02:35:04;9.97;;;5.17;;
70052;SDS011;57398;52.032;4.376;2023-06-10T02:37:53;10.90;;;5.68;;
70052;SDS011;57398;52.032;4.376;2023-06-10T02:40:42;10.73;;;5.43;;
70052;SDS011;57398;52.032;4.376;2023-06-10T02:43:30;10.20;;;5.50;;
70052;SDS011;57398;52.032;4.376;2023-06-10T02:46:18;10.52;;;5.30;;
70052;SDS011;57398;52.032;4.376;2023-06-10T02:49:08;11.53;;;5.67;;
70052;SDS011;57398;52.032;4.376;2023-06-10T02:51:56;11.55;;;5.43;;
70052;SDS011;57398;52.032;4.376;2023-06-10T02:54:45;9.85;;;5.32;;
70052;SDS011;57398;52.032;4.376;2023-06-10T02:57:34;11.02;;;5.53;;
70052;SDS011;57398;52.032;4.376;2023-06-10T03:00:23;9.70;;;5.15;;
70052;SDS011;57398;52.032;4.376;2023-06-10T03:03:11;11.23;;;5.10;;
70052;SDS011;57398;52.032;4.376;2023-06-10T03:06:01;9.80;;;5.35;;
70052;SDS011;57398;52.032;4.376;2023-06-10T03:08:50;9.55;;;5.05;;
70052;SDS011;57398;52.032;4.376;2023-06-10T03:11:38;9.98;;;5.53;;
70052;SDS011;57398;52.032;4.376;2023-06-10T03:14:26;10.52;;;5.43;;
70052;SDS011;57398;52.032;4.376;2023-06-10T03:17:14;9.00;;;5.23;;
70052;SDS011;57398;52.032;4.376;2023-06-10T03:20:05;10.38;;;5.47;;
70052;SDS011;57398;52.032;4.376;2023-06-10T03:22:58;8.52;;;5.10;;
70052;SDS011;57398;52.032;4.376;2023-06-10T03:25:46;11.65;;;5.35;;
70052;SDS011;57398;52.032;4.376;2023-06-10T03:28:35;9.60;;;4.70;;
70052;SDS011;57398;52.032;4.376;2023-06-10T03:31:23;12.90;;;5.27;;
70052;SDS011;57398;52.032;4.376;2023-06-10T03:34:12;9.43;;;5.18;;
70052;SDS011;57398;52.032;4.376;2023-06-10T03:37:00;11.52;;;5.22;;
70052;SDS011;57398;52.032;4.376;2023-06-10T03:39:50;9.18;;;4.97;;
70052;SDS011;57398;52.032;4.376;2023-06-10T03:42:39;9.48;;;4.78;;
70052;SDS011;57398;52.032;4.376;2023-06-10T03:45:27;9.57;;;4.63;;
70052;SDS011;57398;52.032;4.376;2023-06-10T03:48:16;10.48;;;4.63;;
70052;SDS011;57398;52.032;4.376;2023-06-10T03:51:04;8.95;;;4.82;;
70052;SDS011;57398;52.032;4.376;2023-06-10T03:53:52;9.80;;;4.57;;
70052;SDS011;57398;52.032;4.376;2023-06-10T03:56:42;10.05;;;5.80;;
70052;SDS011;57398;52.032;4.376;2023-06-10T03:59:30;10.70;;;4.87;;
70052;SDS011;57398;52.032;4.376;2023-06-10T04:02:19;9.27;;;4.82;;
70052;SDS011;57398;52.032;4.376;2023-06-10T04:05:08;9.23;;;4.90;;
70052;SDS011;57398;52.032;4.376;2023-06-10T04:07:56;9.68;;;5.07;;
70052;SDS011;57398;52.032;4.376;2023-06-10T04:10:44;11.98;;;5.28;;
70052;SDS011;57398;52.032;4.376;2023-06-10T04:13:34;7.93;;;4.10;;
70052;SDS011;57398;52.032;4.376;2023-06-10T04:16:23;10.50;;;4.75;;
70052;SDS011;57398;52.032;4.376;2023-06-10T04:19:11;9.45;;;4.70;;
70052;SDS011;57398;52.032;4.376;2023-06-10T04:22:00;9.75;;;4.63;;
70052;SDS011;57398;52.032;4.376;2023-06-10T04:24:48;9.40;;;4.50;;
70052;SDS011;57398;52.032;4.376;2023-06-10T04:27:36;10.00;;;4.60;;
70052;SDS011;57398;52.032;4.376;2023-06-10T04:30:25;9.48;;;4.50;;
70052;SDS011;57398;52.032;4.376;2023-06-10T04:33:14;9.50;;;4.28;;
70052;SDS011;57398;52.032;4.376;2023-06-10T04:36:03;9.50;;;4.43;;
70052;SDS011;57398;52.032;4.376;2023-06-10T04:38:52;9.38;;;4.43;;
70052;SDS011;57398;52.032;4.376;2023-06-10T04:41:40;9.63;;;4.40;;
70052;SDS011;57398;52.032;4.376;2023-06-10T04:44:28;9.68;;;4.43;;
70052;SDS011;57398;52.032;4.376;2023-06-10T04:47:18;9.18;;;4.60;;
70052;SDS011;57398;52.032;4.376;2023-06-10T04:50:07;10.55;;;4.47;;
70052;SDS011;57398;52.032;4.376;2023-06-10T04:52:55;9.55;;;4.43;;
70052;SDS011;57398;52.032;4.376;2023-06-10T04:55:44;9.30;;;4.23;;
70052;SDS011;57398;52.032;4.376;2023-06-10T04:58:32;9.68;;;4.22;;
70052;SDS011;57398;52.032;4.376;2023-06-10T05:01:20;11.00;;;4.50;;
70052;SDS011;57398;52.032;4.376;2023-06-10T05:04:10;9.27;;;4.53;;
70052;SDS011;57398;52.032;4.376;2023-06-10T05:06:58;9.93;;;4.70;;
70052;SDS011;57398;52.032;4.376;2023-06-10T05:09:47;11.50;;;4.53;;
70052;SDS011;57398;52.032;4.376;2023-06-10T05:12:35;8.73;;;4.45;;
70052;SDS011;57398;52.032;4.376;2023-06-10T05:15:24;10.43;;;4.85;;
70052;SDS011;57398;52.032;4.376;2023-06-10T05:18:13;11.30;;;4.65;;
70052;SDS011;57398;52.032;4.376;2023-06-10T05:21:02;13.60;;;4.38;;
70052;SDS011;57398;52.032;4.376;2023-06-10T05:23:50;9.43;;;4.70;;
70052;SDS011;57398;52.032;4.376;2023-06-10T05:26:39;10.18;;;4.80;;
70052;SDS011;57398;52.032;4.376;2023-06-10T05:29:27;9.60;;;4.47;;
70052;SDS011;57398;52.032;4.376;2023-06-10T05:32:15;10.02;;;4.57;;
70052;SDS011;57398;52.032;4.376;2023-06-10T05:35:04;9.20;;;4.57;;
70052;SDS011;57398;52.032;4.376;2023-06-10T05:37:55;10.03;;;4.90;;
70052;SDS011;57398;52.032;4.376;2023-06-10T05:40:43;9.32;;;4.53;;
70052;SDS011;57398;52.032;4.376;2023-06-10T05:43:31;10.45;;;4.63;;
70052;SDS011;57398;52.032;4.376;2023-06-10T05:46:19;8.55;;;4.05;;
70052;SDS011;57398;52.032;4.376;2023-06-10T05:49:09;10.05;;;4.70;;
70052;SDS011;57398;52.032;4.376;2023-06-10T05:51:58;9.90;;;4.73;;
70052;SDS011;57398;52.032;4.376;2023-06-10T05:54:48;10.63;;;4.97;;
70052;SDS011;57398;52.032;4.376;2023-06-10T05:57:37;10.25;;;4.72;;
70052;SDS011;57398;52.032;4.376;2023-06-10T06:00:25;9.43;;;4.95;;
70052;SDS011;57398;52.032;4.376;2023-06-10T06:03:13;10.73;;;5.35;;
70052;SDS011;57398;52.032;4.376;2023-06-10T06:06:02;10.00;;;4.77;;
70052;SDS011;57398;52.032;4.376;2023-06-10T06:08:50;9.75;;;5.10;;
70052;SDS011;57398;52.032;4.376;2023-06-10T06:11:40;11.20;;;5.05;;
70052;SDS011;57398;52.032;4.376;2023-06-10T06:14:30;11.90;;;4.72;;
70052;SDS011;57398;52.032;4.376;2023-06-10T06:17:19;10.30;;;4.97;;
70052;SDS011;57398;52.032;4.376;2023-06-10T06:20:08;11.17;;;5.13;;
70052;SDS011;57398;52.032;4.376;2023-06-10T06:22:56;10.40;;;4.88;;
70052;SDS011;57398;52.032;4.376;2023-06-10T06:25:44;9.45;;;5.15;;
70052;SDS011;57398;52.032;4.376;2023-06-10T06:28:34;13.50;;;4.97;;
70052;SDS011;57398;52.032;4.376;2023-06-10T06:31:22;10.18;;;5.13;;
70052;SDS011;57398;52.032;4.376;2023-06-10T06:34:10;9.83;;;5.33;;
70052;SDS011;57398;52.032;4.376;2023-06-10T06:37:02;11.93;;;5.65;;
70052;SDS011;57398;52.032;4.376;2023-06-10T06:39:51;9.55;;;5.00;;
70052;SDS011;57398;52.032;4.376;2023-06-10T06:42:39;9.77;;;4.80;;
70052;SDS011;57398;52.032;4.376;2023-06-10T06:45:29;9.48;;;5.18;;
70052;SDS011;57398;52.032;4.376;2023-06-10T06:48:17;9.87;;;4.50;;
70052;SDS011;57398;52.032;4.376;2023-06-10T06:51:05;9.95;;;5.10;;
70052;SDS011;57398;52.032;4.376;2023-06-10T06:53:54;9.68;;;5.05;;
70052;SDS011;57398;52.032;4.376;2023-06-10T06:56:45;10.48;;;5.38;;
70052;SDS011;57398;52.032;4.376;2023-06-10T06:59:33;11.13;;;5.57;;
70052;SDS011;57398;52.032;4.376;2023-06-10T07:02:23;10.23;;;5.20;;
70052;SDS011;57398;52.032;4.376;2023-06-10T07:05:11;10.30;;;4.93;;
70052;SDS011;57398;52.032;4.376;2023-06-10T07:08:03;10.70;;;5.63;;
70052;SDS011;57398;52.032;4.376;2023-06-10T07:10:51;11.20;;;5.60;;
70052;SDS011;57398;52.032;4.376;2023-06-10T07:13:55;11.48;;;5.50;;
70052;SDS011;57398;52.032;4.376;2023-06-10T07:16:43;11.18;;;4.90;;
70052;SDS011;57398;52.032;4.376;2023-06-10T07:19:32;10.80;;;4.90;;
70052;SDS011;57398;52.032;4.376;2023-06-10T07:22:20;9.93;;;5.30;;
70052;SDS011;57398;52.032;4.376;2023-06-10T07:25:08;10.77;;;5.60;;
70052;SDS011;57398;52.032;4.376;2023-06-10T07:27:57;11.90;;;5.50;;
70052;SDS011;57398;52.032;4.376;2023-06-10T07:30:46;9.45;;;5.28;;
70052;SDS011;57398;52.032;4.376;2023-06-10T07:33:34;10.20;;;5.27;;
70052;SDS011;57398;52.032;4.376;2023-06-10T07:36:23;9.20;;;4.93;;
70052;SDS011;57398;52.032;4.376;2023-06-10T07:39:13;9.52;;;5.07;;
70052;SDS011;57398;52.032;4.376;2023-06-10T07:42:02;10.35;;;5.10;;
70052;SDS011;57398;52.032;4.376;2023-06-10T07:44:50;9.20;;;4.85;;
70052;SDS011;57398;52.032;4.376;2023-06-10T07:47:40;8.63;;;4.93;;
70052;SDS011;57398;52.032;4.376;2023-06-10T07:50:28;9.30;;;5.20;;
70052;SDS011;57398;52.032;4.376;2023-06-10T07:53:16;10.20;;;5.20;;
70052;SDS011;57398;52.032;4.376;2023-06-10T07:56:04;12.02;;;5.63;;
70052;SDS011;57398;52.032;4.376;2023-06-10T07:58:52;9.15;;;5.10;;
70052;SDS011;57398;52.032;4.376;2023-06-10T08:01:40;11.13;;;5.35;;
70052;SDS011;57398;52.032;4.376;2023-06-10T08:04:32;9.10;;;5.23;;
70052;SDS011;57398;52.032;4.376;2023-06-10T08:07:22;10.43;;;5.20;;
70052;SDS011;57398;52.032;4.376;2023-06-10T08:10:10;9.98;;;4.93;;
70052;SDS011;57398;52.032;4.376;2023-06-10T08:12:58;9.35;;;5.20;;
70052;SDS011;57398;52.032;4.376;2023-06-10T08:15:47;10.25;;;5.25;;
70052;SDS011;57398;52.032;4.376;2023-06-10T08:18:37;11.10;;;5.63;;
70052;SDS011;57398;52.032;4.376;2023-06-10T08:21:27;8.88;;;4.93;;
70052;SDS011;57398;52.032;4.376;2023-06-10T08:24:15;10.23;;;5.13;;
70052;SDS011;57398;52.032;4.376;2023-06-10T08:27:05;9.32;;;5.72;;
70052;SDS011;57398;52.032;4.376;2023-06-10T08:29:53;11.63;;;5.25;;
70052;SDS011;57398;52.032;4.376;2023-06-10T08:32:41;10.13;;;5.30;;
70052;SDS011;57398;52.032;4.376;2023-06-10T08:35:30;8.27;;;5.18;;
70052;SDS011;57398;52.032;4.376;2023-06-10T08:38:20;9.38;;;5.45;;
70052;SDS011;57398;52.032;4.376;2023-06-10T08:41:08;10.35;;;5.38;;
70052;SDS011;57398;52.032;4.376;2023-06-10T08:43:59;10.18;;;5.13;;
70052;SDS011;57398;52.032;4.376;2023-06-10T08:46:49;10.60;;;5.70;;
70052;SDS011;57398;52.032;4.376;2023-06-10T08:49:41;8.88;;;4.72;;
70052;SDS011;57398;52.032;4.376;2023-06-10T08:52:34;10.57;;;4.90;;
70052;SDS011;57398;52.032;4.376;2023-06-10T08:55:27;9.38;;;5.38;;
70052;SDS011;57398;52.032;4.376;2023-06-10T08:58:18;11.63;;;6.30;;
70052;SDS011;57398;52.032;4.376;2023-06-10T09:01:07;9.73;;;5.47;;
70052;SDS011;57398;52.032;4.376;2023-06-10T09:03:57;10.07;;;5.60;;
70052;SDS011;57398;52.032;4.376;2023-06-10T09:06:47;10.45;;;5.43;;
70052;SDS011;57398;52.032;4.376;2023-06-10T09:09:37;11.30;;;5.55;;
70052;SDS011;57398;52.032;4.376;2023-06-10T09:12:27;9.68;;;5.22;;
70052;SDS011;57398;52.032;4.376;2023-06-10T09:15:15;8.63;;;5.20;;
70052;SDS011;57398;52.032;4.376;2023-06-10T09:18:04;9.07;;;5.28;;
70052;SDS011;57398;52.032;4.376;2023-06-10T09:20:52;9.48;;;5.38;;
70052;SDS011;57398;52.032;4.376;2023-06-10T09:23:41;8.80;;;5.43;;
70052;SDS011;57398;52.032;4.376;2023-06-10T09:26:30;9.77;;;5.38;;
70052;SDS011;57398;52.032;4.376;2023-06-10T09:29:20;9.17;;;5.07;;
70052;SDS011;57398;52.032;4.376;2023-06-10T09:32:08;10.40;;;5.65;;
70052;SDS011;57398;52.032;4.376;2023-06-10T09:34:57;8.50;;;5.38;;
70052;SDS011;57398;52.032;4.376;2023-06-10T09:37:45;7.95;;;5.10;;
70052;SDS011;57398;52.032;4.376;2023-06-10T09:40:34;9.48;;;5.20;;
70052;SDS011;57398;52.032;4.376;2023-06-10T09:43:40;8.37;;;5.30;;
70052;SDS011;57398;52.032;4.376;2023-06-10T09:46:31;9.68;;;5.30;;
70052;SDS011;57398;52.032;4.376;2023-06-10T09:49:20;10.10;;;5.20;;
70052;SDS011;57398;52.032;4.376;2023-06-10T09:52:08;8.00;;;4.78;;
70052;SDS011;57398;52.032;4.376;2023-06-10T09:54:58;8.35;;;4.75;;
70052;SDS011;57398;52.032;4.376;2023-06-10T09:57:48;8.00;;;5.00;;
70052;SDS011;57398;52.032;4.376;2023-06-10T10:00:37;8.35;;;4.90;;
70052;SDS011;57398;52.032;4.376;2023-06-10T10:03:26;10.00;;;5.10;;
70052;SDS011;57398;52.032;4.376;2023-06-10T10:06:15;8.65;;;5.00;;
70052;SDS011;57398;52.032;4.376;2023-06-10T10:09:04;8.10;;;4.90;;
70052;SDS011;57398;52.032;4.376;2023-06-10T10:11:54;8.83;;;5.57;;
70052;SDS011;57398;52.032;4.376;2023-06-10T10:14:45;9.38;;;5.00;;
70052;SDS011;57398;52.032;4.376;2023-06-10T10:17:35;9.70;;;5.03;;
70052;SDS011;57398;52.032;4.376;2023-06-10T10:20:29;8.20;;;5.15;;
70052;SDS011;57398;52.032;4.376;2023-06-10T10:23:21;10.82;;;5.45;;
70052;SDS011;57398;52.032;4.376;2023-06-10T10:26:14;7.17;;;4.90;;
70052;SDS011;57398;52.032;4.376;2023-06-10T10:29:05;8.82;;;4.90;;
70052;SDS011;57398;52.032;4.376;2023-06-10T10:31:58;8.60;;;5.28;;
70052;SDS011;57398;52.032;4.376;2023-06-10T10:34:49;8.10;;;5.20;;
70052;SDS011;57398;52.032;4.376;2023-06-10T10:37:44;10.07;;;5.78;;
70052;SDS011;57398;52.032;4.376;2023-06-10T10:40:33;9.17;;;5.70;;
70052;SDS011;57398;52.032;4.376;2023-06-10T10:43:22;9.20;;;5.63;;
70052;SDS011;57398;52.032;4.376;2023-06-10T10:46:11;8.25;;;5.10;;
70052;SDS011;57398;52.032;4.376;2023-06-10T10:49:00;9.73;;;6.05;;
70052;SDS011;57398;52.032;4.376;2023-06-10T10:51:56;8.70;;;5.68;;
70052;SDS011;57398;52.032;4.376;2023-06-10T10:54:46;9.23;;;6.23;;
70052;SDS011;57398;52.032;4.376;2023-06-10T10:57:35;17.77;;;6.20;;
70052;SDS011;57398;52.032;4.376;2023-06-10T11:00:27;12.60;;;6.30;;
70052;SDS011;57398;52.032;4.376;2023-06-10T11:03:17;9.85;;;5.70;;
70052;SDS011;57398;52.032;4.376;2023-06-10T11:06:08;10.20;;;5.70;;
70052;SDS011;57398;52.032;4.376;2023-06-10T11:09:01;9.07;;;6.03;;
70052;SDS011;57398;52.032;4.376;2023-06-10T11:12:53;9.48;;;5.55;;
70052;SDS011;57398;52.032;4.376;2023-06-10T11:15:45;8.35;;;5.47;;
70052;SDS011;57398;52.032;4.376;2023-06-10T11:18:35;9.68;;;5.90;;
70052;SDS011;57398;52.032;4.376;2023-06-10T11:21:26;9.68;;;6.10;;
70052;SDS011;57398;52.032;4.376;2023-06-10T11:24:15;8.03;;;5.57;;
70052;SDS011;57398;52.032;4.376;2023-06-10T11:27:16;10.93;;;6.28;;
70052;SDS011;57398;52.032;4.376;2023-06-10T11:30:19;10.80;;;5.90;;
70052;SDS011;57398;52.032;4.376;2023-06-10T11:33:07;9.68;;;6.00;;
70052;SDS011;57398;52.032;4.376;2023-06-10T11:35:56;11.10;;;5.80;;
70052;SDS011;57398;52.032;4.376;2023-06-10T11:38:45;10.23;;;6.77;;
70052;SDS011;57398;52.032;4.376;2023-06-10T11:41:34;8.75;;;6.15;;
70052;SDS011;57398;52.032;4.376;2023-06-10T11:44:25;9.35;;;6.05;;
70052;SDS011;57398;52.032;4.376;2023-06-10T11:47:18;9.23;;;5.90;;
70052;SDS011;57398;52.032;4.376;2023-06-10T11:50:06;8.82;;;5.70;;
70052;SDS011;57398;52.032;4.376;2023-06-10T11:52:55;8.57;;;5.53;;
70052;SDS011;57398;52.032;4.376;2023-06-10T11:55:45;11.43;;;6.07;;
70052;SDS011;57398;52.032;4.376;2023-06-10T11:58:34;10.40;;;6.10;;
70052;SDS011;57398;52.032;4.376;2023-06-10T12:01:23;9.98;;;6.28;;
70052;SDS011;57398;52.032;4.376;2023-06-10T12:04:16;9.15;;;5.70;;
70052;SDS011;57398;52.032;4.376;2023-06-10T12:07:05;9.17;;;5.57;;
70052;SDS011;57398;52.032;4.376;2023-06-10T12:09:58;9.10;;;5.88;;
70052;SDS011;57398;52.032;4.376;2023-06-10T12:12:58;9.65;;;5.80;;
70052;SDS011;57398;52.032;4.376;2023-06-10T12:15:46;9.77;;;6.00;;
70052;SDS011;57398;52.032;4.376;2023-06-10T12:18:35;9.00;;;5.65;;
70052;SDS011;57398;52.032;4.376;2023-06-10T12:21:25;8.33;;;5.87;;
70052;SDS011;57398;52.032;4.376;2023-06-10T12:24:13;9.65;;;6.18;;
70052;SDS011;57398;52.032;4.376;2023-06-10T12:27:03;9.48;;;5.70;;
70052;SDS011;57398;52.032;4.376;2023-06-10T12:29:54;9.52;;;5.53;;
70052;SDS011;57398;52.032;4.376;2023-06-10T12:32:43;9.85;;;6.03;;
70052;SDS011;57398;52.032;4.376;2023-06-10T12:35:33;8.83;;;6.13;;
70052;SDS011;57398;52.032;4.376;2023-06-10T12:38:23;8.73;;;6.13;;
70052;SDS011;57398;52.032;4.376;2023-06-10T12:41:13;9.43;;;6.00;;
70052;SDS011;57398;52.032;4.376;2023-06-10T12:44:02;8.27;;;5.97;;
70052;SDS011;57398;52.032;4.376;2023-06-10T12:46:53;8.70;;;5.80;;
70052;SDS011;57398;52.032;4.376;2023-06-10T12:49:42;9.10;;;6.00;;
70052;SDS011;57398;52.032;4.376;2023-06-10T12:52:30;8.10;;;5.88;;
70052;SDS011;57398;52.032;4.376;2023-06-10T12:55:20;8.43;;;5.70;;
70052;SDS011;57398;52.032;4.376;2023-06-10T12:58:08;8.93;;;5.88;;
70052;SDS011;57398;52.032;4.376;2023-06-10T13:00:57;10.85;;;6.03;;
70052;SDS011;57398;52.032;4.376;2023-06-10T13:03:46;9.23;;;5.97;;
70052;SDS011;57398;52.032;4.376;2023-06-10T13:06:34;8.35;;;5.75;;
70052;SDS011;57398;52.032;4.376;2023-06-10T13:09:26;8.85;;;5.85;;
70052;SDS011;57398;52.032;4.376;2023-06-10T13:12:16;7.50;;;5.50;;
70052;SDS011;57398;52.032;4.376;2023-06-10T13:15:10;10.15;;;5.97;;
70052;SDS011;57398;52.032;4.376;2023-06-10T13:17:58;9.53;;;6.30;;
70052;SDS011;57398;52.032;4.376;2023-06-10T13:20:47;8.85;;;5.65;;
70052;SDS011;57398;52.032;4.376;2023-06-10T13:23:35;9.20;;;6.05;;
70052;SDS011;57398;52.032;4.376;2023-06-10T13:26:23;10.25;;;5.93;;
70052;SDS011;57398;52.032;4.376;2023-06-10T13:29:13;10.75;;;6.15;;
70052;SDS011;57398;52.032;4.376;2023-06-10T13:32:02;9.53;;;6.00;;
70052;SDS011;57398;52.032;4.376;2023-06-10T13:34:50;8.88;;;5.95;;
70052;SDS011;57398;52.032;4.376;2023-06-10T13:37:40;8.70;;;6.13;;
70052;SDS011;57398;52.032;4.376;2023-06-10T13:40:28;9.43;;;5.95;;
70052;SDS011;57398;52.032;4.376;2023-06-10T13:43:16;9.00;;;5.90;;
70052;SDS011;57398;52.032;4.376;2023-06-10T13:46:06;8.93;;;6.07;;
70052;SDS011;57398;52.032;4.376;2023-06-10T13:48:54;9.48;;;5.90;;
70052;SDS011;57398;52.032;4.376;2023-06-10T13:51:43;11.23;;;6.20;;
70052;SDS011;57398;52.032;4.376;2023-06-10T13:54:31;8.48;;;5.57;;
70052;SDS011;57398;52.032;4.376;2023-06-10T13:57:19;9.25;;;5.63;;
70052;SDS011;57398;52.032;4.376;2023-06-10T14:00:08;8.27;;;5.43;;
70052;SDS011;57398;52.032;4.376;2023-06-10T14:02:59;9.35;;;5.63;;
70052;SDS011;57398;52.032;4.376;2023-06-10T14:05:47;7.55;;;5.35;;
70052;SDS011;57398;52.032;4.376;2023-06-10T14:08:35;9.20;;;6.00;;
70052;SDS011;57398;52.032;4.376;2023-06-10T14:11:23;8.18;;;5.53;;
70052;SDS011;57398;52.032;4.376;2023-06-10T14:14:12;8.37;;;5.17;;
70052;SDS011;57398;52.032;4.376;2023-06-10T14:17:01;9.07;;;5.60;;
70052;SDS011;57398;52.032;4.376;2023-06-10T14:19:51;9.40;;;5.65;;
70052;SDS011;57398;52.032;4.376;2023-06-10T14:22:39;8.65;;;5.57;;
70052;SDS011;57398;52.032;4.376;2023-06-10T14:25:27;8.25;;;5.50;;
70052;SDS011;57398;52.032;4.376;2023-06-10T14:28:15;10.07;;;5.00;;
70052;SDS011;57398;52.032;4.376;2023-06-10T14:31:03;9.52;;;4.88;;
70052;SDS011;57398;52.032;4.376;2023-06-10T14:33:51;8.25;;;4.80;;
70052;SDS011;57398;52.032;4.376;2023-06-10T14:36:41;8.75;;;4.90;;
70052;SDS011;57398;52.032;4.376;2023-06-10T14:39:29;8.25;;;4.75;;
70052;SDS011;57398;52.032;4.376;2023-06-10T14:42:17;8.90;;;4.97;;
70052;SDS011;57398;52.032;4.376;2023-06-10T14:45:06;8.55;;;4.70;;
70052;SDS011;57398;52.032;4.376;2023-06-10T14:47:57;8.05;;;4.90;;
70052;SDS011;57398;52.032;4.376;2023-06-10T14:50:45;10.65;;;4.78;;
70052;SDS011;57398;52.032;4.376;2023-06-10T14:53:38;9.32;;;4.60;;
70052;SDS011;57398;52.032;4.376;2023-06-10T14:56:27;8.80;;;4.80;;
70052;SDS011;57398;52.032;4.376;2023-06-10T14:59:16;10.98;;;4.88;;
70052;SDS011;57398;52.032;4.376;2023-06-10T15:02:04;9.93;;;4.95;;
70052;SDS011;57398;52.032;4.376;2023-06-10T15:04:53;8.90;;;4.78;;
70052;SDS011;57398;52.032;4.376;2023-06-10T15:07:42;9.38;;;4.95;;
70052;SDS011;57398;52.032;4.376;2023-06-10T15:10:32;9.63;;;4.73;;
70052;SDS011;57398;52.032;4.376;2023-06-10T15:13:20;7.57;;;4.78;;
70052;SDS011;57398;52.032;4.376;2023-06-10T15:16:08;9.60;;;5.13;;
70052;SDS011;57398;52.032;4.376;2023-06-10T15:18:57;12.57;;;4.60;;
70052;SDS011;57398;52.032;4.376;2023-06-10T15:21:45;7.95;;;4.60;;
70052;SDS011;57398;52.032;4.376;2023-06-10T15:24:33;7.63;;;4.27;;
70052;SDS011;57398;52.032;4.376;2023-06-10T15:27:23;9.07;;;4.35;;
70052;SDS011;57398;52.032;4.376;2023-06-10T15:30:11;8.57;;;4.45;;
70052;SDS011;57398;52.032;4.376;2023-06-10T15:32:59;9.13;;;4.43;;
70052;SDS011;57398;52.032;4.376;2023-06-10T15:35:47;7.00;;;4.20;;
70052;SDS011;57398;52.032;4.376;2023-06-10T15:38:36;8.53;;;4.07;;
70052;SDS011;57398;52.032;4.376;2023-06-10T15:41:24;8.15;;;4.45;;
70052;SDS011;57398;52.032;4.376;2023-06-10T15:44:14;8.13;;;4.32;;
70052;SDS011;57398;52.032;4.376;2023-06-10T15:47:03;8.60;;;4.22;;
70052;SDS011;57398;52.032;4.376;2023-06-10T15:49:51;7.15;;;4.03;;
70052;SDS011;57398;52.032;4.376;2023-06-10T15:52:40;8.00;;;4.23;;
70052;SDS011;57398;52.032;4.376;2023-06-10T15:55:28;9.07;;;4.40;;
70052;SDS011;57398;52.032;4.376;2023-06-10T15:58:16;8.30;;;4.68;;
70052;SDS011;57398;52.032;4.376;2023-06-10T16:01:06;8.63;;;4.05;;
70052;SDS011;57398;52.032;4.376;2023-06-10T16:03:55;8.20;;;4.20;;
70052;SDS011;57398;52.032;4.376;2023-06-10T16:06:43;6.93;;;3.87;;
70052;SDS011;57398;52.032;4.376;2023-06-10T16:09:32;7.68;;;3.90;;
70052;SDS011;57398;52.032;4.376;2023-06-10T16:12:20;7.43;;;3.83;;
70052;SDS011;57398;52.032;4.376;2023-06-10T16:15:09;9.43;;;3.92;;
70052;SDS011;57398;52.032;4.376;2023-06-10T16:17:59;7.88;;;3.95;;
70052;SDS011;57398;52.032;4.376;2023-06-10T16:20:47;7.20;;;3.90;;
70052;SDS011;57398;52.032;4.376;2023-06-10T16:23:35;8.13;;;3.92;;
70052;SDS011;57398;52.032;4.376;2023-06-10T16:26:25;7.43;;;4.00;;
70052;SDS011;57398;52.032;4.376;2023-06-10T16:29:13;7.78;;;4.07;;
70052;SDS011;57398;52.032;4.376;2023-06-10T16:32:01;8.60;;;3.90;;
70052;SDS011;57398;52.032;4.376;2023-06-10T16:34:51;8.37;;;4.17;;
70052;SDS011;57398;52.032;4.376;2023-06-10T16:37:39;7.35;;;3.75;;
70052;SDS011;57398;52.032;4.376;2023-06-10T16:40:28;7.82;;;3.90;;
70052;SDS011;57398;52.032;4.376;2023-06-10T16:43:16;9.98;;;3.80;;
70052;SDS011;57398;52.032;4.376;2023-06-10T16:46:04;7.20;;;4.43;;
70052;SDS011;57398;52.032;4.376;2023-06-10T16:48:53;7.70;;;4.00;;
70052;SDS011;57398;52.032;4.376;2023-06-10T16:51:42;9.27;;;3.90;;
70052;SDS011;57398;52.032;4.376;2023-06-10T16:54:30;8.75;;;3.70;;
70052;SDS011;57398;52.032;4.376;2023-06-10T16:57:19;6.85;;;3.63;;